createdAt,value
2022-12-23T00:00:59.556Z,6.16
2022-12-23T00:04:08.395Z,6.18
2022-12-23T00:07:16.907Z,6.18
2022-12-23T00:10:24.934Z,6.19
2022-12-23T00:13:33.789Z,6.21
2022-12-23T00:16:42.812Z,6.19
2022-12-23T00:19:51.056Z,6.18
2022-12-23T00:23:00.342Z,6.19
2022-12-23T00:26:08.991Z,6.21
2022-12-23T00:29:17.469Z,6.22
2022-12-23T00:32:26.131Z,6.25
2022-12-23T00:35:34.928Z,6.28
2022-12-23T00:38:43.417Z,6.29
2022-12-23T00:41:51.722Z,6.32
2022-12-23T00:44:59.693Z,6.35
2022-12-23T00:48:08.383Z,6.35
2022-12-23T00:51:16.565Z,6.35
2022-12-23T00:54:24.874Z,6.38
2022-12-23T00:57:33.245Z,6.35
2022-12-23T01:00:41.729Z,6.36
2022-12-23T01:03:50.541Z,6.36
2022-12-23T01:06:58.616Z,6.40
2022-12-23T01:10:07.556Z,6.43
2022-12-23T01:13:16.398Z,6.44
2022-12-23T01:16:24.488Z,6.46
2022-12-23T01:19:28.028Z,6.46
2022-12-23T01:22:36.779Z,6.47
2022-12-23T01:25:44.809Z,6.50
2022-12-23T01:28:53.692Z,6.50
2022-12-23T01:32:02.320Z,6.51
2022-12-23T01:35:10.788Z,6.54
2022-12-23T01:38:19.501Z,6.56
2022-12-23T01:41:27.616Z,6.56
2022-12-23T01:44:36.103Z,6.61
2022-12-23T01:47:45.027Z,6.65
2022-12-23T01:50:53.517Z,6.68
2022-12-23T01:54:01.970Z,6.73
2022-12-23T01:57:10.328Z,6.77
2022-12-23T02:00:19.221Z,6.87
2022-12-23T02:03:27.874Z,6.90
2022-12-23T02:06:36.191Z,6.95
2022-12-23T02:09:45.089Z,7.04
2022-12-23T02:12:53.780Z,7.22
2022-12-23T02:16:02.339Z,7.38
2022-12-23T02:19:11.366Z,7.50
2022-12-23T02:22:19.389Z,7.60
2022-12-23T02:25:28.232Z,7.71
2022-12-23T02:28:36.983Z,7.78
2022-12-23T02:31:45.110Z,7.84
2022-12-23T02:34:53.944Z,7.96
2022-12-23T02:38:02.815Z,8.11
2022-12-23T02:41:10.816Z,8.18
2022-12-23T02:44:19.609Z,8.26
2022-12-23T02:47:28.453Z,8.29
2022-12-23T02:50:36.463Z,8.32
2022-12-23T02:53:44.919Z,8.32
2022-12-23T02:56:53.127Z,8.30
2022-12-23T03:00:02.215Z,8.35
2022-12-23T03:03:11.023Z,8.35
2022-12-23T03:06:19.384Z,8.35
2022-12-23T03:09:28.326Z,8.36
2022-12-23T03:12:36.834Z,8.39
2022-12-23T03:15:45.509Z,8.36
2022-12-23T03:18:55.229Z,8.40
2022-12-23T03:22:03.323Z,8.44
2022-12-23T03:25:12.752Z,8.44
2022-12-23T03:28:21.739Z,8.44
2022-12-23T03:31:29.825Z,8.42
2022-12-23T03:34:38.626Z,8.42
2022-12-23T03:37:47.543Z,8.40
2022-12-23T03:40:55.668Z,8.39
2022-12-23T03:44:04.398Z,8.40
2022-12-23T03:47:12.932Z,8.40
2022-12-23T03:50:21.362Z,8.42
2022-12-23T03:53:29.982Z,8.42
2022-12-23T03:56:38.545Z,8.42
2022-12-23T03:59:46.955Z,8.44
2022-12-23T04:02:55.392Z,8.45
2022-12-23T04:06:04.370Z,8.45
2022-12-23T04:09:16.646Z,8.45
2022-12-23T04:12:16.787Z,8.47
2022-12-23T04:15:25.759Z,8.47
2022-12-23T04:18:33.904Z,8.48
2022-12-23T04:21:42.267Z,8.47
2022-12-23T04:24:50.806Z,8.47
2022-12-23T04:27:58.649Z,8.48
2022-12-23T04:31:07.083Z,8.45
2022-12-23T04:34:15.623Z,8.50
2022-12-23T04:37:23.529Z,8.53
2022-12-23T04:40:32.213Z,8.51
2022-12-23T04:43:40.934Z,8.54
2022-12-23T04:46:48.865Z,8.53
2022-12-23T04:49:57.646Z,8.53
2022-12-23T04:53:06.567Z,8.54
2022-12-23T04:56:14.653Z,8.54
2022-12-23T04:59:23.457Z,8.54
2022-12-23T05:02:31.825Z,8.54
2022-12-23T05:05:40.250Z,8.53
2022-12-23T05:08:49.850Z,8.48
2022-12-23T05:11:57.911Z,8.47
2022-12-23T05:15:06.024Z,8.45
2022-12-23T05:18:14.853Z,8.44
2022-12-23T05:21:23.101Z,8.44
2022-12-23T05:24:31.511Z,8.45
2022-12-23T05:27:40.043Z,8.47
2022-12-23T05:30:48.464Z,8.48
2022-12-23T05:34:02.288Z,8.48
2022-12-23T05:37:01.026Z,8.51
2022-12-23T05:40:09.628Z,8.51
2022-12-23T05:43:18.125Z,8.57
2022-12-23T05:46:27.400Z,8.55
2022-12-23T05:49:36.664Z,8.55
2022-12-23T05:52:45.038Z,8.57
2022-12-23T05:55:53.131Z,8.54
2022-12-23T05:59:02.002Z,8.53
2022-12-23T06:02:10.683Z,8.51
2022-12-23T06:05:19.343Z,8.48
2022-12-23T06:08:28.122Z,8.47
2022-12-23T06:11:36.985Z,8.44
2022-12-23T06:14:45.709Z,8.44
2022-12-23T06:17:54.352Z,8.42
2022-12-23T06:21:02.742Z,8.40
2022-12-23T06:24:11.127Z,8.39
2022-12-23T06:27:20.081Z,8.37
2022-12-23T06:30:28.657Z,8.35
2022-12-23T06:33:37.331Z,8.30
2022-12-23T06:36:45.832Z,8.28
2022-12-23T06:39:54.737Z,8.26
2022-12-23T06:43:03.087Z,8.21
2022-12-23T06:46:11.424Z,8.18
2022-12-23T06:49:20.309Z,8.14
2022-12-23T06:52:28.837Z,8.11
2022-12-23T06:55:37.114Z,8.10
2022-12-23T06:58:45.793Z,8.03
2022-12-23T07:01:54.497Z,8.00
2022-12-23T07:05:02.582Z,7.97
2022-12-23T07:08:11.378Z,7.96
2022-12-23T07:11:19.583Z,7.93
2022-12-23T07:14:28.803Z,7.93
2022-12-23T07:17:37.655Z,7.90
2022-12-23T07:20:45.891Z,7.90
2022-12-23T07:23:54.875Z,7.89
2022-12-23T07:27:03.671Z,7.87
2022-12-23T07:30:12.067Z,7.84
2022-12-23T07:33:20.516Z,7.78
2022-12-23T07:36:29.608Z,7.77
2022-12-23T07:39:38.120Z,7.72
2022-12-23T07:42:47.271Z,7.69
2022-12-23T07:45:59.850Z,7.63
2022-12-23T07:48:58.636Z,7.60
2022-12-23T07:52:07.266Z,7.60
2022-12-23T07:55:15.886Z,7.58
2022-12-23T07:58:24.848Z,7.58
2022-12-23T08:01:33.436Z,7.58
2022-12-23T08:04:46.067Z,7.59
2022-12-23T08:07:44.632Z,7.58
2022-12-23T08:10:52.753Z,7.56
2022-12-23T08:14:01.488Z,7.55
2022-12-23T08:17:10.479Z,7.55
2022-12-23T08:20:18.654Z,7.58
2022-12-23T08:23:27.052Z,7.60
2022-12-23T08:26:35.963Z,7.60
2022-12-23T08:29:44.076Z,7.67
2022-12-23T08:32:53.009Z,7.74
2022-12-23T08:36:02.159Z,7.75
2022-12-23T08:39:10.260Z,7.74
2022-12-23T08:42:18.711Z,7.75
2022-12-23T08:45:27.250Z,7.77
2022-12-23T08:48:36.029Z,7.81
2022-12-23T08:51:44.561Z,7.78
2022-12-23T08:54:53.018Z,7.78
2022-12-23T08:58:01.381Z,7.77
2022-12-23T09:01:10.358Z,7.81
2022-12-23T09:04:18.873Z,7.82
2022-12-23T09:07:27.453Z,7.85
2022-12-23T09:10:35.742Z,7.90
2022-12-23T09:13:44.874Z,7.96
2022-12-23T09:16:53.454Z,7.97
2022-12-23T09:20:01.932Z,8.00
2022-12-23T09:23:10.828Z,8.07
2022-12-23T09:26:19.258Z,8.11
2022-12-23T09:29:27.336Z,8.08
2022-12-23T09:32:36.248Z,8.10
2022-12-23T09:35:44.634Z,8.10
2022-12-23T09:38:52.611Z,8.07
2022-12-23T09:42:01.385Z,8.03
2022-12-23T09:45:10.132Z,8.00
2022-12-23T09:48:18.701Z,8.02
2022-12-23T09:51:27.457Z,8.00
2022-12-23T09:54:35.854Z,7.96
2022-12-23T09:57:44.365Z,7.96
2022-12-23T10:00:52.753Z,7.97
2022-12-23T10:04:01.664Z,7.99
2022-12-23T10:07:11.198Z,7.99
2022-12-23T10:10:19.695Z,7.99
2022-12-23T10:13:28.400Z,8.04
2022-12-23T10:16:36.820Z,8.20
2022-12-23T10:19:45.442Z,8.32
2022-12-23T10:22:54.330Z,8.42
2022-12-23T10:26:02.281Z,8.48
2022-12-23T10:29:16.862Z,8.44
2022-12-23T10:32:16.118Z,8.30
2022-12-23T10:35:24.276Z,8.22
2022-12-23T10:38:33.140Z,8.20
2022-12-23T10:41:41.635Z,8.18
2022-12-23T10:44:50.113Z,8.17
2022-12-23T10:47:59.073Z,8.14
2022-12-23T10:51:07.526Z,8.15
2022-12-23T10:54:16.004Z,8.18
2022-12-23T10:57:24.801Z,8.20
2022-12-23T11:00:33.243Z,8.25
2022-12-23T11:03:41.754Z,8.30
2022-12-23T11:07:10.627Z,8.32
2022-12-23T11:09:56.306Z,8.28
2022-12-23T11:13:04.672Z,8.28
2022-12-23T11:16:13.145Z,8.25
2022-12-23T11:19:21.983Z,8.21
2022-12-23T11:22:30.221Z,8.21
2022-12-23T11:25:38.521Z,8.25
2022-12-23T11:28:47.476Z,8.26
2022-12-23T11:31:56.617Z,8.29
2022-12-23T11:35:05.091Z,8.21
2022-12-23T11:38:13.947Z,8.10
2022-12-23T11:41:22.025Z,8.10
2022-12-23T11:44:30.898Z,8.11
2022-12-23T11:47:39.738Z,8.15
2022-12-23T11:50:47.996Z,8.18
2022-12-23T11:53:57.173Z,8.20
2022-12-23T11:57:06.165Z,8.20
2022-12-23T12:00:14.155Z,8.21
2022-12-23T12:03:22.830Z,8.18
2022-12-23T12:06:31.475Z,8.17
2022-12-23T12:09:40.551Z,8.18
2022-12-23T12:12:52.986Z,8.21
2022-12-23T12:15:52.636Z,8.28
2022-12-23T12:19:01.385Z,8.30
2022-12-23T12:22:09.361Z,8.30
2022-12-23T12:25:18.335Z,8.29
2022-12-23T12:28:27.185Z,8.25
2022-12-23T12:31:35.250Z,8.22
2022-12-23T12:34:44.050Z,8.22
2022-12-23T12:37:52.591Z,8.25
2022-12-23T12:41:00.864Z,8.29
2022-12-23T12:44:09.772Z,8.33
2022-12-23T12:50:23.945Z,8.37
2022-12-23T12:53:32.900Z,8.39
2022-12-23T12:56:41.288Z,8.39
2022-12-23T12:59:49.750Z,8.44
2022-12-23T13:02:58.388Z,8.40
2022-12-23T13:06:07.295Z,8.36
2022-12-23T13:09:15.482Z,8.39
2022-12-23T13:12:23.741Z,8.40
2022-12-23T13:15:32.622Z,8.42
2022-12-23T13:18:40.603Z,8.42
2022-12-23T13:21:50.168Z,8.42
2022-12-23T13:24:59.003Z,8.42
2022-12-23T13:28:06.985Z,8.39
2022-12-23T13:31:15.983Z,8.37
2022-12-23T13:34:24.928Z,8.35
2022-12-23T13:37:32.895Z,8.33
2022-12-23T13:40:41.318Z,8.30
2022-12-23T13:43:50.141Z,8.29
2022-12-23T13:46:58.113Z,8.25
2022-12-23T13:50:06.836Z,8.25
2022-12-23T13:53:15.431Z,8.21
2022-12-23T13:56:23.856Z,8.20
2022-12-23T13:59:32.473Z,8.21
2022-12-23T14:02:40.988Z,8.17
2022-12-23T14:05:50.203Z,8.14
2022-12-23T14:08:58.912Z,8.10
2022-12-23T14:12:07.286Z,8.07
2022-12-23T14:15:15.847Z,8.03
2022-12-23T14:18:23.896Z,8.00
2022-12-23T14:21:32.657Z,7.97
2022-12-23T14:24:41.128Z,7.96
2022-12-23T14:27:49.585Z,7.94
2022-12-23T14:30:58.580Z,7.93
2022-12-23T14:34:07.193Z,7.92
2022-12-23T14:37:15.303Z,7.93
2022-12-23T14:40:24.160Z,7.89
2022-12-23T14:43:32.571Z,7.90
2022-12-23T14:46:41.054Z,7.87
2022-12-23T14:49:50.371Z,7.84
2022-12-23T14:52:58.377Z,7.82
2022-12-23T14:56:07.111Z,7.79
2022-12-23T14:59:16.144Z,7.77
2022-12-23T15:02:24.778Z,7.75
2022-12-23T15:05:33.231Z,7.74
2022-12-23T15:08:41.764Z,7.71
2022-12-23T15:11:50.616Z,7.69
2022-12-23T15:14:59.077Z,7.69
2022-12-23T15:18:07.630Z,7.62
2022-12-23T15:21:16.955Z,7.59
2022-12-23T15:24:26.501Z,7.59
2022-12-23T15:27:36.093Z,7.55
2022-12-23T15:30:44.559Z,7.53
2022-12-23T15:34:02.711Z,7.50
2022-12-23T15:36:59.075Z,7.49
2022-12-23T15:40:13.294Z,7.47
2022-12-23T15:43:11.285Z,7.45
2022-12-23T15:46:26.953Z,7.44
2022-12-23T15:49:26.282Z,7.44
2022-12-23T15:52:35.691Z,7.40
2022-12-23T15:55:44.857Z,7.38
2022-12-23T15:58:53.628Z,7.37
2022-12-23T16:02:04.080Z,7.32
2022-12-23T16:05:06.934Z,7.31
2022-12-23T16:08:15.128Z,7.27
2022-12-23T16:11:23.148Z,7.31
2022-12-23T16:14:24.007Z,7.26
2022-12-23T16:17:32.069Z,7.26
2022-12-23T16:20:40.648Z,7.26
2022-12-23T16:23:49.568Z,7.26
2022-12-23T16:26:58.134Z,7.26
2022-12-23T16:30:06.411Z,7.24
2022-12-23T16:33:15.138Z,7.23
2022-12-23T16:36:24.055Z,7.22
2022-12-23T16:39:32.628Z,7.22
2022-12-23T16:42:41.041Z,7.19
2022-12-23T16:45:50.407Z,7.17
2022-12-23T16:48:58.535Z,7.19
2022-12-23T16:52:07.176Z,7.16
2022-12-23T16:55:16.096Z,7.17
2022-12-23T16:58:24.156Z,7.16
2022-12-23T17:01:33.533Z,7.19
2022-12-23T17:04:42.647Z,7.19
2022-12-23T17:07:50.939Z,7.19
2022-12-23T17:10:59.909Z,7.19
2022-12-23T17:14:13.698Z,7.20
2022-12-23T17:17:12.783Z,7.22
2022-12-23T17:20:21.417Z,7.23
2022-12-23T17:23:30.193Z,7.24
2022-12-23T17:26:38.863Z,7.29
2022-12-23T17:29:47.350Z,7.29
2022-12-23T17:32:56.445Z,7.31
2022-12-23T17:36:05.647Z,7.31
2022-12-23T17:39:14.072Z,7.34
2022-12-23T17:42:25.819Z,7.35
2022-12-23T17:45:24.359Z,7.37
2022-12-23T17:48:32.851Z,7.35
2022-12-23T17:51:41.800Z,7.37
2022-12-23T17:54:50.967Z,7.38
2022-12-23T17:57:59.261Z,7.38
2022-12-23T18:01:08.372Z,7.37
2022-12-23T18:04:17.014Z,7.38
2022-12-23T18:07:25.179Z,7.38
2022-12-23T18:10:34.100Z,7.40
2022-12-23T18:13:43.051Z,7.41
2022-12-23T18:16:51.241Z,7.40
2022-12-23T18:20:00.183Z,7.40
2022-12-23T18:23:08.735Z,7.41
2022-12-23T18:26:16.820Z,7.40
2022-12-23T18:29:25.812Z,7.40
2022-12-23T18:32:34.325Z,7.41
2022-12-23T18:35:42.768Z,7.42
2022-12-23T18:38:51.763Z,7.42
2022-12-23T18:42:00.425Z,7.44
2022-12-23T18:45:08.936Z,7.47
2022-12-23T18:48:17.908Z,7.49
2022-12-23T18:51:26.830Z,7.50
2022-12-23T18:54:35.120Z,7.52
2022-12-23T18:57:43.322Z,7.53
2022-12-23T19:00:52.457Z,7.56
2022-12-23T19:04:01.080Z,7.58
2022-12-23T19:07:09.873Z,7.58
2022-12-23T19:10:18.769Z,7.58
2022-12-23T19:13:27.537Z,7.59
2022-12-23T19:16:35.613Z,7.59
2022-12-23T19:19:44.595Z,7.56
2022-12-23T19:22:16.045Z,7.55
2022-12-23T19:25:25.089Z,7.53
2022-12-23T19:28:33.626Z,7.50
2022-12-23T19:31:41.684Z,7.47
2022-12-23T19:34:50.513Z,7.52
2022-12-23T19:37:58.972Z,7.52
2022-12-23T19:41:07.661Z,7.52
2022-12-23T19:44:16.363Z,7.52
2022-12-23T19:47:24.719Z,7.49
2022-12-23T19:50:33.269Z,7.45
2022-12-23T19:53:42.255Z,7.45
2022-12-23T19:56:50.671Z,7.44
2022-12-23T19:59:59.210Z,7.45
2022-12-23T20:03:07.906Z,7.42
2022-12-23T20:06:16.354Z,7.44
2022-12-23T20:09:24.957Z,7.41
2022-12-23T20:12:33.553Z,7.42
2022-12-23T20:15:43.042Z,7.44
2022-12-23T20:18:51.595Z,7.44
2022-12-23T20:22:00.002Z,7.44
2022-12-23T20:25:09.420Z,7.42
2022-12-23T20:28:17.586Z,7.38
2022-12-23T20:31:26.286Z,7.37
2022-12-23T20:34:39.768Z,7.40
2022-12-23T20:37:37.915Z,7.40
2022-12-23T20:40:46.007Z,7.40
2022-12-23T20:44:32.522Z,7.35
2022-12-23T20:47:00.418Z,7.35
2022-12-23T20:50:09.291Z,7.35
2022-12-23T20:53:17.468Z,7.34
2022-12-23T20:56:25.911Z,7.34
2022-12-23T20:59:34.457Z,7.29
2022-12-23T21:02:42.879Z,7.27
2022-12-23T21:05:51.315Z,7.26
2022-12-23T21:08:59.639Z,7.26
2022-12-23T21:12:08.091Z,7.24
2022-12-23T21:15:16.415Z,7.20
2022-12-23T21:18:24.427Z,7.19
2022-12-23T21:21:33.223Z,7.20
2022-12-23T21:24:41.857Z,7.24
2022-12-23T21:27:49.946Z,7.23
2022-12-23T21:30:59.591Z,7.24
2022-12-23T21:34:08.530Z,7.26
2022-12-23T21:37:16.385Z,7.24
2022-12-23T21:40:25.176Z,7.23
2022-12-23T21:43:33.182Z,7.23
2022-12-23T21:46:42.362Z,7.23
2022-12-23T21:49:51.390Z,7.19
2022-12-23T21:52:59.483Z,7.16
2022-12-23T21:56:07.971Z,7.16
2022-12-23T21:59:17.309Z,7.13
2022-12-23T22:02:25.483Z,7.09
2022-12-23T22:05:34.221Z,7.08
2022-12-23T22:08:42.664Z,7.08
2022-12-23T22:11:51.515Z,7.12
2022-12-23T22:14:59.990Z,7.09
2022-12-23T22:18:08.418Z,7.08
2022-12-23T22:21:17.241Z,7.12
2022-12-23T22:24:25.602Z,7.12
2022-12-23T22:27:34.095Z,7.08
2022-12-23T22:30:42.601Z,7.07
2022-12-23T22:33:50.959Z,7.01
2022-12-23T22:36:59.996Z,6.97
2022-12-23T22:40:08.909Z,6.91
2022-12-23T22:43:16.970Z,6.89
2022-12-23T22:46:25.441Z,6.84
2022-12-23T22:49:34.408Z,6.86
2022-12-23T22:52:42.404Z,6.84
2022-12-23T22:55:51.221Z,6.84
2022-12-23T22:59:00.040Z,6.83
2022-12-23T23:02:08.151Z,6.80
2022-12-23T23:05:16.886Z,6.80
2022-12-23T23:08:24.761Z,6.81
2022-12-23T23:11:33.491Z,6.86
2022-12-23T23:14:42.457Z,6.84
2022-12-23T23:17:50.843Z,6.84
2022-12-23T23:20:59.151Z,6.81
2022-12-23T23:24:07.898Z,6.84
2022-12-23T23:27:16.111Z,6.84
2022-12-23T23:30:24.922Z,6.81
2022-12-23T23:33:33.423Z,6.86
2022-12-23T23:36:42.035Z,6.81
2022-12-23T23:39:51.052Z,6.83
2022-12-23T23:42:59.655Z,6.83
2022-12-23T23:46:08.019Z,6.80
2022-12-23T23:49:16.888Z,6.77
2022-12-23T23:52:25.239Z,6.72
2022-12-23T23:55:33.668Z,6.68
2022-12-23T23:58:41.652Z,6.68
